createdAt,value
2019-05-25T00:00:32.424Z,9.47
2019-05-25T00:02:59.867Z,9.90
2019-05-25T00:05:28.863Z,10.37
2019-05-25T00:07:56.507Z,10.53
2019-05-25T00:10:24.072Z,9.77
2019-05-25T00:12:53.267Z,10.73
2019-05-25T00:15:20.537Z,10.97
2019-05-25T00:17:49.720Z,11.17
2019-05-25T00:20:18.509Z,11.87
2019-05-25T00:22:45.868Z,12.77
2019-05-25T00:25:13.165Z,13.80
2019-05-25T00:27:40.702Z,12.97
2019-05-25T00:30:08.504Z,12.47
2019-05-25T00:32:35.752Z,12.30
2019-05-25T00:35:03.106Z,12.20
2019-05-25T00:37:30.340Z,11.93
2019-05-25T00:39:57.631Z,11.57
2019-05-25T00:42:25.230Z,11.17
2019-05-25T00:44:52.764Z,10.57
2019-05-25T00:47:20.117Z,11.47
2019-05-25T00:49:49.208Z,11.80
2019-05-25T00:52:18.244Z,12.10
2019-05-25T00:54:45.495Z,13.07
2019-05-25T00:57:12.785Z,12.90
2019-05-25T00:59:40.368Z,12.07
2019-05-25T01:02:07.930Z,12.40
2019-05-25T01:04:35.188Z,13.57
2019-05-25T01:07:03.493Z,12.83
2019-05-25T01:09:31.828Z,13.67
2019-05-25T01:11:59.541Z,14.03
2019-05-25T01:14:27.156Z,12.40
2019-05-25T01:16:54.533Z,12.80
2019-05-25T01:19:21.860Z,12.53
2019-05-25T01:21:49.257Z,12.53
2019-05-25T01:24:16.529Z,12.90
2019-05-25T01:26:44.236Z,13.90
2019-05-25T01:29:11.512Z,12.97
2019-05-25T01:31:39.155Z,12.87
2019-05-25T01:34:06.406Z,11.67
2019-05-25T01:36:34.145Z,12.23
2019-05-25T01:39:01.502Z,11.53
2019-05-25T01:41:28.943Z,12.00
2019-05-25T01:43:56.632Z,11.63
2019-05-25T01:46:24.053Z,13.27
2019-05-25T01:48:51.711Z,12.53
2019-05-25T01:51:19.097Z,11.73
2019-05-25T01:53:46.682Z,11.47
2019-05-25T01:56:14.012Z,11.90
2019-05-25T01:58:41.306Z,11.53
2019-05-25T02:01:08.968Z,11.43
2019-05-25T02:03:36.327Z,11.17
2019-05-25T02:06:03.742Z,11.90
2019-05-25T02:08:31.074Z,11.40
2019-05-25T02:10:58.361Z,11.90
2019-05-25T02:13:25.652Z,11.43
2019-05-25T02:15:54.235Z,11.07
2019-05-25T02:18:21.557Z,11.67
2019-05-25T02:20:50.876Z,11.70
2019-05-25T02:23:18.456Z,11.70
2019-05-25T02:25:46.633Z,11.33
2019-05-25T02:28:14.336Z,12.13
2019-05-25T02:30:41.752Z,11.83
2019-05-25T02:33:09.190Z,10.53
2019-05-25T02:35:36.517Z,12.00
2019-05-25T02:38:04.203Z,10.93
2019-05-25T02:40:31.368Z,12.30
2019-05-25T02:42:58.985Z,11.67
2019-05-25T02:45:26.227Z,12.40
2019-05-25T02:47:53.573Z,12.27
2019-05-25T02:50:20.821Z,11.37
2019-05-25T02:52:48.125Z,11.07
2019-05-25T02:55:15.464Z,11.10
2019-05-25T02:57:42.929Z,11.03
2019-05-25T03:00:10.470Z,11.23
2019-05-25T03:02:37.785Z,12.27
2019-05-25T03:05:05.496Z,11.30
2019-05-25T03:07:34.584Z,10.93
2019-05-25T03:10:03.569Z,10.93
2019-05-25T03:12:32.085Z,11.47
2019-05-25T03:14:59.317Z,12.37
2019-05-25T03:17:26.712Z,12.43
2019-05-25T03:19:53.986Z,14.47
2019-05-25T03:22:21.445Z,13.23
2019-05-25T03:24:48.679Z,14.67
2019-05-25T03:27:15.980Z,14.00
2019-05-25T03:29:43.230Z,13.90
2019-05-25T03:32:10.877Z,14.17
2019-05-25T03:34:38.213Z,13.93
2019-05-25T03:37:05.641Z,14.03
2019-05-25T03:39:33.280Z,13.37
2019-05-25T03:42:00.680Z,14.40
2019-05-25T03:44:27.812Z,14.60
2019-05-25T03:46:55.088Z,14.70
2019-05-25T03:49:22.384Z,15.00
2019-05-25T03:51:49.663Z,14.10
2019-05-25T03:54:16.900Z,14.37
2019-05-25T03:56:44.517Z,14.53
2019-05-25T03:59:11.755Z,15.30
2019-05-25T04:01:38.981Z,14.07
2019-05-25T04:04:06.375Z,15.33
2019-05-25T04:06:33.700Z,14.53
2019-05-25T04:09:01.160Z,14.40
2019-05-25T04:11:28.358Z,14.90
2019-05-25T04:13:56.016Z,14.73
2019-05-25T04:16:23.664Z,14.30
2019-05-25T04:18:51.239Z,14.83
2019-05-25T04:21:18.877Z,13.50
2019-05-25T04:23:46.432Z,13.47
2019-05-25T04:26:21.968Z,13.47
2019-05-25T04:28:42.897Z,13.53
2019-05-25T04:31:10.596Z,13.60
2019-05-25T04:33:38.320Z,12.43
2019-05-25T04:36:05.651Z,12.57
2019-05-25T04:38:33.047Z,13.33
2019-05-25T04:41:00.316Z,13.93
2019-05-25T04:43:27.709Z,13.33
2019-05-25T04:45:55.057Z,13.83
2019-05-25T04:48:22.509Z,14.00
2019-05-25T04:50:49.847Z,13.37
2019-05-25T04:53:17.170Z,12.67
2019-05-25T04:55:44.401Z,12.30
2019-05-25T04:58:12.084Z,11.13
2019-05-25T05:00:39.512Z,12.17
2019-05-25T05:03:06.847Z,11.80
2019-05-25T05:05:34.289Z,11.37
2019-05-25T05:08:01.954Z,12.40
2019-05-25T05:10:29.284Z,11.80
2019-05-25T05:12:56.660Z,12.00
2019-05-25T05:15:24.418Z,11.73
2019-05-25T05:18:00.353Z,11.10
2019-05-25T05:20:29.767Z,11.07
2019-05-25T05:22:57.140Z,9.87
2019-05-25T05:25:24.396Z,10.20
2019-05-25T05:27:51.688Z,10.30
2019-05-25T05:30:29.131Z,11.00
2019-05-25T05:32:56.660Z,10.73
2019-05-25T05:35:23.968Z,11.20
2019-05-25T05:37:51.707Z,10.57
2019-05-25T05:40:18.954Z,9.60
2019-05-25T05:42:48.449Z,8.43
2019-05-25T05:45:16.015Z,7.30
2019-05-25T05:47:46.152Z,7.07
2019-05-25T05:50:13.628Z,5.90
2019-05-25T05:52:41.065Z,5.50
2019-05-25T05:55:09.836Z,4.87
2019-05-25T05:57:37.177Z,5.43
2019-05-25T06:00:05.212Z,5.13
2019-05-25T06:02:32.702Z,3.83
2019-05-25T06:05:00.086Z,4.13
2019-05-25T06:07:27.621Z,3.40
2019-05-25T06:09:55.019Z,3.60
2019-05-25T06:12:22.250Z,3.37
2019-05-25T06:14:49.674Z,3.20
2019-05-25T06:17:16.935Z,2.87
2019-05-25T06:19:44.628Z,3.13
2019-05-25T06:22:12.264Z,3.77
2019-05-25T06:24:39.849Z,3.70
2019-05-25T06:27:07.399Z,3.40
2019-05-25T06:29:34.694Z,3.70
2019-05-25T06:32:01.959Z,3.43
2019-05-25T06:34:29.377Z,2.97
2019-05-25T06:36:57.004Z,3.60
2019-05-25T06:39:24.972Z,3.80
2019-05-25T06:42:07.718Z,3.23
2019-05-25T06:44:37.986Z,3.73
2019-05-25T06:47:18.334Z,3.73
2019-05-25T06:49:54.291Z,4.37
2019-05-25T06:52:41.574Z,4.17
2019-05-25T06:55:09.581Z,3.87
2019-05-25T06:57:43.322Z,4.53
2019-05-25T07:00:14.914Z,3.80
2019-05-25T07:02:42.527Z,3.90
2019-05-25T07:05:09.897Z,4.10
2019-05-25T07:07:37.185Z,4.50
2019-05-25T07:10:05.016Z,3.77
2019-05-25T07:12:34.208Z,4.10
2019-05-25T07:15:06.493Z,3.67
2019-05-25T07:17:45.079Z,4.57
2019-05-25T07:20:17.476Z,4.13
2019-05-25T07:22:54.335Z,4.17
2019-05-25T07:25:28.962Z,4.67
2019-05-25T07:28:01.164Z,4.87
2019-05-25T07:30:28.543Z,5.00
2019-05-25T07:33:00.654Z,4.30
2019-05-25T07:35:29.494Z,4.57
2019-05-25T07:40:41.820Z,4.07
2019-05-25T07:43:17.047Z,4.70
2019-05-25T07:45:46.470Z,6.17
2019-05-25T07:48:17.896Z,5.10
2019-05-25T07:50:53.078Z,5.23
2019-05-25T07:53:28.647Z,5.13
2019-05-25T07:55:56.610Z,5.40
2019-05-25T07:58:29.788Z,5.60
2019-05-25T08:00:57.429Z,5.33
2019-05-25T08:03:24.719Z,4.60
2019-05-25T08:05:51.968Z,4.90
2019-05-25T08:08:19.609Z,6.00
2019-05-25T08:10:46.884Z,5.47
2019-05-25T08:13:14.254Z,5.27
2019-05-25T08:15:42.244Z,4.80
2019-05-25T08:18:09.861Z,4.87
2019-05-25T08:20:37.408Z,5.00
2019-05-25T08:23:04.968Z,5.70
2019-05-25T08:25:32.534Z,5.43
2019-05-25T08:28:00.187Z,3.57
2019-05-25T08:30:27.425Z,3.00
2019-05-25T08:32:54.718Z,3.03
2019-05-25T08:35:22.141Z,4.50
2019-05-25T08:37:49.526Z,4.07
2019-05-25T08:40:16.799Z,3.27
2019-05-25T08:42:44.423Z,4.30
2019-05-25T08:45:11.770Z,3.97
2019-05-25T08:47:39.609Z,3.97
2019-05-25T08:50:07.687Z,5.07
2019-05-25T08:52:35.368Z,4.57
2019-05-25T08:55:02.811Z,4.90
2019-05-25T08:57:36.799Z,3.80
2019-05-25T09:00:04.540Z,4.70
2019-05-25T09:02:31.912Z,5.07
2019-05-25T09:04:59.172Z,4.20
2019-05-25T09:07:28.137Z,3.87
2019-05-25T09:09:57.021Z,4.47
2019-05-25T09:12:37.041Z,5.50
2019-05-25T09:15:17.385Z,4.80
2019-05-25T09:17:50.766Z,5.27
2019-05-25T09:20:29.665Z,3.97
2019-05-25T09:23:04.700Z,3.33
2019-05-25T09:25:36.096Z,4.40
2019-05-25T09:28:16.003Z,4.50
2019-05-25T09:30:43.613Z,3.27
2019-05-25T09:33:15.068Z,2.47
2019-05-25T09:35:46.243Z,2.67
2019-05-25T09:38:22.185Z,2.53
2019-05-25T09:40:49.922Z,4.13
2019-05-25T09:43:17.659Z,4.10
2019-05-25T09:45:44.887Z,3.83
2019-05-25T09:48:12.595Z,4.23
2019-05-25T09:50:39.926Z,3.90
2019-05-25T09:53:07.294Z,2.50
2019-05-25T09:55:34.685Z,3.10
2019-05-25T09:58:05.499Z,3.27
2019-05-25T10:00:33.129Z,4.23
2019-05-25T10:03:00.427Z,3.23
2019-05-25T10:05:27.690Z,2.47
2019-05-25T10:07:55.011Z,2.03
2019-05-25T10:10:22.552Z,2.60
2019-05-25T10:12:50.331Z,3.27
2019-05-25T10:15:17.722Z,4.80
2019-05-25T10:17:45.442Z,2.53
2019-05-25T10:20:13.401Z,2.67
2019-05-25T10:22:41.069Z,4.07
2019-05-25T10:25:08.869Z,3.03
2019-05-25T10:27:36.259Z,3.30
2019-05-25T10:30:05.798Z,2.73
2019-05-25T10:32:33.373Z,2.17
2019-05-25T10:35:07.399Z,2.43
2019-05-25T10:37:35.034Z,2.57
2019-05-25T10:40:06.539Z,2.40
2019-05-25T10:42:39.447Z,1.90
2019-05-25T10:45:11.945Z,1.87
2019-05-25T10:47:44.445Z,1.67
2019-05-25T10:50:23.960Z,1.70
2019-05-25T10:52:55.813Z,2.00
2019-05-25T10:55:23.204Z,2.57
2019-05-25T10:57:50.468Z,2.20
2019-05-25T11:00:18.382Z,1.30
2019-05-25T11:02:45.739Z,1.30
2019-05-25T11:05:13.545Z,1.40
2019-05-25T11:07:40.816Z,1.37
2019-05-25T11:10:08.493Z,1.60
2019-05-25T11:12:35.665Z,1.10
2019-05-25T11:15:03.057Z,1.03
2019-05-25T11:17:30.407Z,1.17
2019-05-25T11:19:57.697Z,1.20
2019-05-25T11:22:25.438Z,1.10
2019-05-25T11:24:53.210Z,1.00
2019-05-25T11:27:20.744Z,1.20
2019-05-25T11:29:48.445Z,1.30
2019-05-25T11:32:16.288Z,1.00
2019-05-25T11:34:43.899Z,1.10
2019-05-25T11:37:14.903Z,1.10
2019-05-25T11:39:41.129Z,1.30
2019-05-25T11:42:08.441Z,1.10
2019-05-25T11:44:35.737Z,1.00
2019-05-25T11:47:03.042Z,1.03
2019-05-25T11:49:30.420Z,1.00
2019-05-25T11:51:57.749Z,1.17
2019-05-25T11:54:25.080Z,0.90
2019-05-25T11:56:52.727Z,0.73
2019-05-25T11:59:19.944Z,0.60
2019-05-25T12:01:47.241Z,0.63
2019-05-25T12:04:18.541Z,0.60
2019-05-25T12:06:46.233Z,0.60
2019-05-25T12:09:13.396Z,0.43
2019-05-25T12:11:44.053Z,0.70
2019-05-25T12:14:15.479Z,0.70
2019-05-25T12:16:43.347Z,0.83
2019-05-25T12:19:10.609Z,0.70
2019-05-25T12:21:37.906Z,0.90
2019-05-25T12:24:05.623Z,0.70
2019-05-25T12:26:32.934Z,0.50
2019-05-25T12:29:00.290Z,0.60
2019-05-25T12:31:27.593Z,0.70
2019-05-25T12:33:54.847Z,0.80
2019-05-25T12:36:22.156Z,0.60
2019-05-25T12:38:49.837Z,0.80
2019-05-25T12:41:18.206Z,0.80
2019-05-25T12:43:46.712Z,0.87
2019-05-25T12:46:14.827Z,0.80
2019-05-25T12:59:52.178Z,0.60
2019-05-25T13:06:01.138Z,0.40
2019-05-25T13:08:31.301Z,0.60
2019-05-25T13:10:59.724Z,0.60
2019-05-25T13:13:28.652Z,0.50
2019-05-25T13:15:56.279Z,0.53
2019-05-25T13:18:25.657Z,0.60
2019-05-25T13:20:54.186Z,0.60
2019-05-25T13:23:23.196Z,0.70
2019-05-25T13:25:50.518Z,0.67
2019-05-25T13:28:18.154Z,0.50
2019-05-25T13:30:45.497Z,0.73
2019-05-25T13:33:14.229Z,0.60
2019-05-25T13:35:41.597Z,0.60
2019-05-25T13:38:09.947Z,0.70
2019-05-25T13:40:37.718Z,0.60
2019-05-25T13:43:06.911Z,0.70
2019-05-25T13:45:34.572Z,0.80
2019-05-25T13:48:01.896Z,0.70
2019-05-25T13:50:29.261Z,0.70
2019-05-25T13:52:57.369Z,0.77
2019-05-25T13:55:24.672Z,0.50
2019-05-25T13:58:14.270Z,0.60
2019-05-25T14:00:42.398Z,0.70
2019-05-25T14:03:11.862Z,0.60
2019-05-25T14:05:39.063Z,0.80
2019-05-25T14:08:07.414Z,0.70
2019-05-25T14:10:35.616Z,0.70
2019-05-25T14:13:03.556Z,0.60
2019-05-25T14:15:34.748Z,0.70
2019-05-25T14:18:03.050Z,0.70
2019-05-25T14:20:31.073Z,0.67
2019-05-25T14:22:59.446Z,0.60
2019-05-25T14:25:26.877Z,0.60
2019-05-25T14:27:54.327Z,0.70
2019-05-25T14:30:23.153Z,0.73
2019-05-25T14:32:50.934Z,0.80
2019-05-25T14:35:18.345Z,0.70
2019-05-25T14:37:47.277Z,0.80
2019-05-25T14:40:16.919Z,0.70
2019-05-25T14:42:51.246Z,0.60
2019-05-25T14:45:18.876Z,0.77
2019-05-25T14:47:46.165Z,0.70
2019-05-25T14:50:14.137Z,0.80
2019-05-25T14:52:43.477Z,0.77
2019-05-25T14:55:11.356Z,0.70
2019-05-25T14:57:39.976Z,1.10
2019-05-25T15:00:09.152Z,0.83
2019-05-25T15:02:36.494Z,1.00
2019-05-25T15:05:04.592Z,0.70
2019-05-25T15:07:31.824Z,0.90
2019-05-25T15:09:59.155Z,0.83
2019-05-25T15:12:26.559Z,0.90
2019-05-25T15:14:53.965Z,0.80
2019-05-25T15:17:21.723Z,1.00
2019-05-25T15:19:49.346Z,0.80
2019-05-25T15:22:16.703Z,1.00
2019-05-25T15:24:44.714Z,0.80
2019-05-25T15:27:12.445Z,0.90
2019-05-25T15:29:39.853Z,1.00
2019-05-25T15:32:19.461Z,1.00
2019-05-25T15:34:36.953Z,0.90
2019-05-25T15:37:04.425Z,0.97
2019-05-25T15:39:32.108Z,0.97
2019-05-25T15:41:59.482Z,1.10
2019-05-25T15:44:26.878Z,0.80
2019-05-25T15:46:54.294Z,0.90
2019-05-25T15:49:32.696Z,0.80
2019-05-25T15:51:55.753Z,0.80
2019-05-25T15:54:23.371Z,1.10
2019-05-25T15:56:51.848Z,1.00
2019-05-25T15:59:23.199Z,0.90
2019-05-25T16:01:48.608Z,0.80
2019-05-25T16:04:15.881Z,2.73
2019-05-25T16:06:43.163Z,0.93
2019-05-25T16:09:10.532Z,1.50
2019-05-25T16:11:37.928Z,1.33
2019-05-25T16:14:07.706Z,1.10
2019-05-25T16:16:38.927Z,1.37
2019-05-25T16:19:06.679Z,1.97
2019-05-25T16:21:34.814Z,1.63
2019-05-25T16:24:03.501Z,1.50
2019-05-25T16:26:44.985Z,1.37
2019-05-25T16:29:01.127Z,1.60
2019-05-25T16:31:29.068Z,1.10
2019-05-25T16:33:57.060Z,16.13
2019-05-25T16:36:26.681Z,43.20
2019-05-25T16:38:54.071Z,2.30
2019-05-25T16:41:21.891Z,3.43
2019-05-25T16:43:49.622Z,6.60
2019-05-25T16:46:17.480Z,4.50
2019-05-25T16:48:45.162Z,4.40
2019-05-25T16:51:13.450Z,3.93
2019-05-25T16:53:41.215Z,2.20
2019-05-25T16:56:10.330Z,5.70
2019-05-25T16:58:38.173Z,3.80
2019-05-25T17:01:06.953Z,3.53
2019-05-25T17:03:36.549Z,3.80
2019-05-25T17:06:03.845Z,3.37
2019-05-25T17:08:32.153Z,2.43
2019-05-25T17:11:00.491Z,2.60
2019-05-25T17:13:28.239Z,1.77
2019-05-25T17:15:55.552Z,1.90
2019-05-25T17:18:22.871Z,2.13
2019-05-25T17:20:50.804Z,2.40
2019-05-25T17:23:19.285Z,1.90
2019-05-25T17:25:46.852Z,2.30
2019-05-25T17:28:14.529Z,1.70
2019-05-25T17:30:46.507Z,1.70
2019-05-25T17:33:14.263Z,8.20
2019-05-25T17:35:41.646Z,2.47
2019-05-25T17:38:10.056Z,9.90
2019-05-25T17:40:37.973Z,2.20
2019-05-25T17:43:05.358Z,2.50
2019-05-25T17:45:33.049Z,2.60
2019-05-25T17:48:01.496Z,2.37
2019-05-25T17:50:32.327Z,1.97
2019-05-25T17:53:00.216Z,5.77
2019-05-25T17:55:29.113Z,2.70
2019-05-25T17:57:57.126Z,3.33
2019-05-25T18:00:46.467Z,3.00
2019-05-25T18:03:15.769Z,3.47
2019-05-25T18:05:43.656Z,3.47
2019-05-25T18:08:11.089Z,3.33
2019-05-25T18:10:52.051Z,3.43
2019-05-25T18:13:08.583Z,3.37
2019-05-25T18:15:35.822Z,3.70
2019-05-25T18:18:04.443Z,4.00
2019-05-25T18:20:32.561Z,5.17
2019-05-25T18:23:01.474Z,3.80
2019-05-25T18:25:29.231Z,5.03
2019-05-25T18:27:56.507Z,3.93
2019-05-25T18:30:24.576Z,4.50
2019-05-25T18:32:51.883Z,4.87
2019-05-25T18:35:19.184Z,4.43
2019-05-25T18:37:47.172Z,5.60
2019-05-25T18:40:15.016Z,5.03
2019-05-25T18:42:42.260Z,4.77
2019-05-25T18:45:09.937Z,6.00
2019-05-25T18:47:37.501Z,5.77
2019-05-25T18:50:06.604Z,4.87
2019-05-25T18:52:34.255Z,6.70
2019-05-25T18:55:02.010Z,6.40
2019-05-25T18:57:29.564Z,5.33
2019-05-25T18:59:56.869Z,7.20
2019-05-25T19:02:24.114Z,6.73
2019-05-25T19:04:59.446Z,7.13
2019-05-25T19:07:21.544Z,6.93
2019-05-25T19:09:48.782Z,7.58
2019-05-25T19:12:16.017Z,7.70
2019-05-25T19:14:43.715Z,10.13
2019-05-25T19:17:11.077Z,20.43
2019-05-25T19:19:38.372Z,10.93
2019-05-25T19:22:06.016Z,8.77
2019-05-25T19:24:33.329Z,12.10
2019-05-25T19:27:02.410Z,20.17
2019-05-25T19:29:29.724Z,14.10
2019-05-25T19:31:57.437Z,10.10
2019-05-25T19:34:25.226Z,27.90
2019-05-25T19:36:53.193Z,44.47
2019-05-25T19:39:20.392Z,11.97
2019-05-25T19:41:47.986Z,14.27
2019-05-25T19:44:15.273Z,10.57
2019-05-25T19:46:43.180Z,11.60
2019-05-25T19:49:10.487Z,12.57
2019-05-25T19:51:37.638Z,11.10
2019-05-25T19:54:05.363Z,11.70
2019-05-25T19:56:33.029Z,10.13
2019-05-25T19:59:00.290Z,10.70
2019-05-25T20:01:28.003Z,10.63
2019-05-25T20:03:57.406Z,11.77
2019-05-25T20:06:24.513Z,13.30
2019-05-25T20:08:51.757Z,10.87
2019-05-25T20:11:19.428Z,10.03
2019-05-25T20:13:47.493Z,10.17
2019-05-25T20:16:15.129Z,10.67
2019-05-25T20:18:42.731Z,10.63
2019-05-25T20:21:10.020Z,21.07
2019-05-25T20:23:37.273Z,18.00
2019-05-25T20:26:04.653Z,25.50
2019-05-25T20:28:31.886Z,12.33
2019-05-25T20:30:59.263Z,18.67
2019-05-25T20:33:27.959Z,19.50
2019-05-25T20:35:55.753Z,24.03
2019-05-25T20:38:23.070Z,18.63
2019-05-25T20:40:50.361Z,18.83
2019-05-25T20:43:18.531Z,13.77
2019-05-25T20:45:46.157Z,13.57
2019-05-25T20:48:13.484Z,13.27
2019-05-25T20:50:40.926Z,13.77
2019-05-25T20:53:08.169Z,12.83
2019-05-25T20:55:35.451Z,13.10
2019-05-25T20:58:02.696Z,12.03
2019-05-25T21:00:29.973Z,10.90
2019-05-25T21:03:06.223Z,11.47
2019-05-25T21:05:26.756Z,11.20
2019-05-25T21:07:54.075Z,11.50
2019-05-25T21:10:21.648Z,12.47
2019-05-25T21:12:48.888Z,12.10
2019-05-25T21:15:16.473Z,12.13
2019-05-25T21:17:44.095Z,13.17
2019-05-25T21:20:12.356Z,12.87
2019-05-25T21:22:39.948Z,11.83
2019-05-25T21:25:07.426Z,12.50
2019-05-25T21:27:35.200Z,11.83
2019-05-25T21:30:03.395Z,12.80
2019-05-25T21:32:30.759Z,13.03
2019-05-25T21:34:58.187Z,11.90
2019-05-25T21:37:25.481Z,13.30
2019-05-25T21:39:52.728Z,12.27
2019-05-25T21:42:20.078Z,12.77
2019-05-25T21:44:47.496Z,12.70
2019-05-25T21:47:15.235Z,12.63
2019-05-25T21:49:42.484Z,13.77
2019-05-25T21:52:10.170Z,13.33
2019-05-25T21:54:37.544Z,13.13
2019-05-25T21:57:05.277Z,13.43
2019-05-25T21:59:32.961Z,13.70
2019-05-25T22:02:00.893Z,13.33
2019-05-25T22:04:28.585Z,14.60
2019-05-25T22:06:56.214Z,14.83
2019-05-25T22:09:23.566Z,14.97
2019-05-25T22:11:51.242Z,15.43
2019-05-25T22:14:18.485Z,15.47
2019-05-25T22:16:45.988Z,15.13
2019-05-25T22:19:13.297Z,14.20
2019-05-25T22:21:40.717Z,15.33
2019-05-25T22:24:08.519Z,15.63
2019-05-25T22:26:35.817Z,16.03
2019-05-25T22:29:03.137Z,16.27
2019-05-25T22:31:30.847Z,16.53
2019-05-25T22:33:59.352Z,17.57
2019-05-25T22:36:39.727Z,18.07
2019-05-25T22:38:56.705Z,18.00
2019-05-25T22:41:24.299Z,18.27
2019-05-25T22:43:53.541Z,18.00
2019-05-25T22:46:20.976Z,17.47
2019-05-25T22:48:48.568Z,15.47
2019-05-25T22:51:16.348Z,16.60
2019-05-25T22:53:43.788Z,16.17
2019-05-25T22:56:11.497Z,15.63
2019-05-25T22:58:39.165Z,15.63
2019-05-25T23:01:06.477Z,15.67
2019-05-25T23:03:36.628Z,14.87
2019-05-25T23:06:04.120Z,15.63
2019-05-25T23:08:31.553Z,14.70
2019-05-25T23:10:58.849Z,14.03
2019-05-25T23:13:26.434Z,15.33
2019-05-25T23:15:53.731Z,14.57
2019-05-25T23:18:21.169Z,15.60
2019-05-25T23:20:48.524Z,15.77
2019-05-25T23:23:15.900Z,16.30
2019-05-25T23:25:43.124Z,16.30
2019-05-25T23:28:11.179Z,15.53
2019-05-25T23:30:39.103Z,15.50
2019-05-25T23:33:06.641Z,16.33
2019-05-25T23:35:34.195Z,15.97
2019-05-25T23:38:03.599Z,15.90
2019-05-25T23:40:30.776Z,16.73
2019-05-25T23:42:58.086Z,17.30
2019-05-25T23:45:28.195Z,16.43
2019-05-25T23:47:57.254Z,15.93
2019-05-25T23:50:24.957Z,15.90
2019-05-25T23:52:52.260Z,16.33
2019-05-25T23:55:19.666Z,15.90
2019-05-25T23:57:48.053Z,16.37
